createdAt,value
2023-06-29T00:01:11.501Z,10.80
2023-06-29T00:04:00.236Z,10.60
2023-06-29T00:06:28.026Z,11.50
2023-06-29T00:08:55.734Z,9.30
2023-06-29T00:11:23.574Z,12.30
2023-06-29T00:13:51.292Z,9.50
2023-06-29T00:16:19.045Z,11.60
2023-06-29T00:18:47.124Z,9.50
2023-06-29T00:21:14.781Z,8.90
2023-06-29T00:23:42.548Z,9.10
2023-06-29T00:26:11.998Z,8.90
2023-06-29T00:28:40.132Z,14.90
2023-06-29T00:31:07.820Z,11.70
2023-06-29T00:33:35.600Z,10.00
2023-06-29T00:36:03.772Z,13.80
2023-06-29T00:38:31.772Z,12.70
2023-06-29T00:40:59.492Z,10.70
2023-06-29T00:43:27.127Z,10.40
2023-06-29T00:45:54.793Z,13.30
2023-06-29T00:48:22.632Z,15.00
2023-06-29T00:50:50.327Z,11.70
2023-06-29T00:53:18.050Z,11.50
2023-06-29T00:55:46.111Z,13.60
2023-06-29T00:58:13.900Z,12.10
2023-06-29T01:00:41.627Z,13.30
2023-06-29T01:03:10.800Z,14.50
2023-06-29T01:05:38.612Z,12.90
2023-06-29T01:08:15.038Z,14.80
2023-06-29T01:10:46.901Z,11.70
2023-06-29T01:13:19.226Z,12.20
2023-06-29T01:15:49.833Z,13.30
2023-06-29T01:18:19.303Z,14.00
2023-06-29T01:20:50.576Z,14.10
2023-06-29T01:23:37.497Z,16.20
2023-06-29T01:26:06.475Z,15.00
2023-06-29T01:28:39.316Z,16.10
2023-06-29T01:31:07.101Z,15.50
2023-06-29T01:33:35.093Z,14.60
2023-06-29T01:36:37.026Z,13.40
2023-06-29T01:39:21.100Z,11.70
2023-06-29T01:41:49.960Z,15.30
2023-06-29T01:44:18.225Z,14.00
2023-06-29T01:46:48.593Z,14.00
2023-06-29T01:49:16.481Z,13.50
2023-06-29T01:51:44.190Z,15.50
2023-06-29T01:54:12.304Z,15.50
2023-06-29T01:56:39.971Z,15.00
2023-06-29T01:59:07.746Z,15.50
2023-06-29T02:01:35.456Z,14.20
2023-06-29T02:04:04.752Z,13.60
2023-06-29T02:06:32.470Z,12.60
2023-06-29T02:09:00.640Z,17.50
2023-06-29T02:11:28.524Z,11.10
2023-06-29T02:13:56.270Z,13.20
2023-06-29T02:16:24.026Z,16.90
2023-06-29T02:18:51.722Z,11.40
2023-06-29T02:21:19.381Z,14.80
2023-06-29T02:23:47.425Z,14.90
2023-06-29T02:26:15.291Z,14.00
2023-06-29T02:28:43.013Z,17.50
2023-06-29T02:31:11.006Z,12.40
2023-06-29T02:33:38.767Z,15.20
2023-06-29T02:36:06.525Z,13.10
2023-06-29T02:38:34.454Z,13.40
2023-06-29T02:41:02.207Z,14.20
2023-06-29T02:43:29.891Z,14.60
2023-06-29T02:45:57.571Z,17.30
2023-06-29T02:48:25.319Z,19.70
2023-06-29T02:50:53.962Z,15.10
2023-06-29T02:53:21.659Z,14.60
2023-06-29T02:55:49.443Z,15.50
2023-06-29T02:58:17.248Z,11.70
2023-06-29T03:00:44.910Z,12.90
2023-06-29T03:03:12.790Z,14.10
2023-06-29T03:05:40.879Z,11.90
2023-06-29T03:08:08.637Z,16.10
2023-06-29T03:10:36.346Z,15.30
2023-06-29T03:13:04.114Z,15.80
2023-06-29T03:15:31.840Z,16.10
2023-06-29T03:17:59.582Z,15.70
2023-06-29T03:20:27.436Z,14.00
2023-06-29T03:22:55.255Z,17.40
2023-06-29T03:25:22.955Z,18.90
2023-06-29T03:27:50.892Z,18.50
2023-06-29T03:30:18.591Z,15.50
2023-06-29T03:32:46.281Z,17.50
2023-06-29T03:35:14.241Z,15.20
2023-06-29T03:37:41.972Z,13.10
2023-06-29T03:40:10.581Z,15.70
2023-06-29T03:42:38.278Z,16.60
2023-06-29T03:45:06.924Z,19.30
2023-06-29T03:47:34.781Z,13.50
2023-06-29T03:50:02.683Z,15.40
2023-06-29T03:52:30.424Z,16.80
2023-06-29T03:54:58.138Z,15.60
2023-06-29T03:57:25.788Z,15.80
2023-06-29T03:59:53.554Z,13.90
2023-06-29T04:02:21.439Z,19.40
2023-06-29T04:04:49.700Z,13.30
2023-06-29T04:07:17.545Z,14.00
2023-06-29T04:09:45.757Z,16.30
2023-06-29T04:12:14.131Z,13.50
2023-06-29T04:14:41.923Z,16.50
2023-06-29T04:17:09.685Z,22.00
2023-06-29T04:19:37.467Z,15.90
2023-06-29T04:22:05.469Z,15.20
2023-06-29T04:24:33.249Z,13.90
2023-06-29T04:27:01.518Z,17.60
2023-06-29T04:29:29.228Z,16.40
2023-06-29T04:31:58.098Z,14.00
2023-06-29T04:34:25.814Z,15.20
2023-06-29T04:36:57.702Z,16.50
2023-06-29T04:39:25.558Z,14.40
2023-06-29T04:42:01.959Z,14.90
2023-06-29T04:44:33.351Z,15.60
2023-06-29T04:47:01.593Z,15.90
2023-06-29T04:49:33.246Z,14.80
2023-06-29T04:52:01.083Z,14.00
2023-06-29T04:54:29.041Z,15.60
2023-06-29T04:56:57.614Z,14.10
2023-06-29T04:59:28.288Z,15.20
2023-06-29T05:01:56.134Z,14.20
2023-06-29T05:04:24.126Z,16.80
2023-06-29T05:06:51.811Z,15.10
2023-06-29T05:09:20.646Z,16.00
2023-06-29T05:11:48.653Z,16.80
2023-06-29T05:14:16.344Z,15.30
2023-06-29T05:16:44.224Z,14.10
2023-06-29T05:19:11.915Z,16.20
2023-06-29T05:21:39.641Z,17.50
2023-06-29T05:24:07.845Z,16.10
2023-06-29T05:26:35.752Z,16.10
2023-06-29T05:29:06.117Z,18.80
2023-06-29T05:31:34.342Z,19.80
2023-06-29T05:34:02.173Z,17.30
2023-06-29T05:36:30.751Z,21.80
2023-06-29T05:38:58.747Z,16.60
2023-06-29T05:41:26.509Z,18.20
2023-06-29T05:43:54.270Z,16.60
2023-06-29T05:46:23.256Z,23.10
2023-06-29T05:48:51.183Z,19.20
2023-06-29T05:51:38.599Z,14.40
2023-06-29T05:54:06.331Z,21.20
2023-06-29T05:56:34.006Z,18.10
2023-06-29T05:59:02.168Z,21.00
2023-06-29T06:01:29.975Z,20.70
2023-06-29T06:03:57.872Z,17.10
2023-06-29T06:06:25.688Z,16.20
2023-06-29T06:08:54.083Z,18.70
2023-06-29T06:11:21.770Z,17.60
2023-06-29T06:13:49.621Z,18.30
2023-06-29T06:16:17.560Z,16.10
2023-06-29T06:18:45.473Z,17.20
2023-06-29T06:21:13.415Z,19.70
2023-06-29T06:23:41.555Z,15.60
2023-06-29T06:26:09.256Z,15.60
2023-06-29T06:28:36.973Z,15.30
2023-06-29T06:31:04.831Z,14.70
2023-06-29T06:33:34.085Z,15.10
2023-06-29T06:36:03.686Z,14.80
2023-06-29T06:38:48.394Z,14.10
2023-06-29T06:41:17.536Z,16.50
2023-06-29T06:43:45.353Z,13.50
2023-06-29T06:46:13.243Z,16.70
2023-06-29T06:48:41.088Z,15.20
2023-06-29T06:51:08.801Z,17.20
2023-06-29T06:53:36.495Z,12.10
2023-06-29T06:56:04.771Z,10.80
2023-06-29T06:58:33.049Z,11.50
2023-06-29T07:01:00.939Z,11.20
2023-06-29T07:03:28.887Z,11.20
2023-06-29T07:05:57.036Z,12.00
2023-06-29T07:08:24.890Z,9.60
2023-06-29T07:10:53.120Z,11.50
2023-06-29T07:13:20.814Z,11.50
2023-06-29T07:15:48.532Z,9.50
2023-06-29T07:18:16.349Z,7.80
2023-06-29T07:25:46.089Z,10.60
2023-06-29T07:28:14.056Z,7.80
2023-06-29T07:30:41.761Z,8.60
2023-06-29T07:33:09.613Z,8.10
2023-06-29T07:35:37.481Z,9.20
2023-06-29T07:38:05.179Z,9.10
2023-06-29T07:40:33.046Z,8.80
2023-06-29T07:43:00.723Z,10.90
2023-06-29T07:45:28.465Z,7.40
2023-06-29T07:47:56.355Z,7.80
2023-06-29T07:50:24.213Z,8.80
2023-06-29T07:52:52.281Z,7.60
2023-06-29T07:55:20.089Z,8.90
2023-06-29T08:00:20.174Z,7.00
2023-06-29T08:02:48.095Z,9.90
2023-06-29T08:07:46.873Z,7.00
2023-06-29T08:10:15.473Z,5.70
2023-06-29T08:12:43.248Z,6.80
2023-06-29T08:15:11.610Z,6.60
2023-06-29T08:17:39.345Z,8.20
2023-06-29T08:20:13.469Z,7.30
2023-06-29T08:22:44.210Z,9.60
2023-06-29T08:25:12.312Z,7.20
2023-06-29T08:27:40.614Z,6.00
2023-06-29T08:30:10.137Z,8.20
2023-06-29T08:32:37.990Z,7.60
2023-06-29T08:35:06.666Z,7.80
2023-06-29T08:37:34.764Z,7.20
2023-06-29T08:40:05.423Z,8.10
2023-06-29T08:42:33.533Z,9.10
2023-06-29T08:45:01.360Z,8.90
2023-06-29T08:47:36.002Z,7.10
2023-06-29T08:50:06.534Z,9.50
2023-06-29T08:52:36.051Z,7.50
2023-06-29T08:55:04.884Z,5.70
2023-06-29T08:57:33.650Z,5.90
2023-06-29T09:00:05.376Z,7.60
2023-06-29T09:02:34.741Z,6.60
2023-06-29T09:05:04.783Z,7.10
2023-06-29T09:07:33.175Z,7.10
2023-06-29T09:10:01.444Z,8.20
2023-06-29T09:12:29.222Z,7.70
2023-06-29T09:14:58.258Z,7.80
2023-06-29T09:17:27.866Z,8.80
2023-06-29T09:19:57.973Z,6.00
2023-06-29T09:22:28.867Z,6.20
2023-06-29T09:25:07.601Z,5.50
2023-06-29T09:27:38.458Z,9.00
2023-06-29T09:30:07.780Z,5.70
2023-06-29T09:32:41.687Z,6.30
2023-06-29T09:35:10.342Z,7.60
2023-06-29T09:37:38.376Z,8.80
2023-06-29T09:40:12.605Z,6.50
2023-06-29T09:42:40.771Z,6.70
2023-06-29T09:45:16.421Z,9.60
2023-06-29T09:50:25.256Z,6.80
2023-06-29T09:52:55.314Z,9.80
2023-06-29T09:55:31.068Z,7.70
2023-06-29T09:58:00.423Z,8.70
2023-06-29T10:00:28.996Z,8.10
2023-06-29T10:02:57.322Z,7.90
2023-06-29T10:05:25.343Z,5.60
2023-06-29T10:07:54.421Z,5.20
2023-06-29T10:10:24.498Z,8.30
2023-06-29T10:12:58.578Z,7.10
2023-06-29T10:15:29.140Z,7.50
2023-06-29T10:18:11.558Z,7.30
2023-06-29T10:20:44.953Z,8.70
2023-06-29T10:23:16.806Z,9.60
2023-06-29T10:25:50.082Z,6.70
2023-06-29T10:28:19.994Z,7.10
2023-06-29T10:30:52.303Z,6.00
2023-06-29T10:33:24.093Z,9.40
2023-06-29T10:35:59.086Z,6.20
2023-06-29T10:38:35.303Z,6.40
2023-06-29T10:41:07.701Z,6.10
2023-06-29T10:43:54.701Z,8.20
2023-06-29T10:46:46.041Z,6.50
2023-06-29T10:49:27.766Z,7.20
2023-06-29T10:52:02.671Z,6.90
2023-06-29T10:54:30.965Z,6.80
2023-06-29T10:57:06.579Z,6.10
2023-06-29T10:59:37.913Z,8.80
2023-06-29T11:02:06.382Z,6.50
2023-06-29T11:04:35.497Z,6.40
2023-06-29T11:07:09.697Z,7.60
2023-06-29T11:09:37.507Z,5.80
2023-06-29T11:12:05.930Z,6.50
2023-06-29T11:14:39.394Z,4.80
2023-06-29T11:17:09.952Z,6.00
2023-06-29T11:19:45.858Z,6.70
2023-06-29T11:22:13.478Z,5.50
2023-06-29T11:24:44.149Z,6.90
2023-06-29T11:27:12.506Z,8.50
2023-06-29T11:29:40.367Z,9.80
2023-06-29T11:32:13.844Z,4.90
2023-06-29T11:34:41.564Z,5.50
2023-06-29T11:37:16.006Z,7.10
2023-06-29T11:39:50.292Z,6.30
2023-06-29T11:42:23.481Z,6.70
2023-06-29T11:45:05.975Z,6.30
2023-06-29T11:47:34.466Z,6.20
2023-06-29T11:50:05.844Z,8.50
2023-06-29T11:52:35.281Z,5.50
2023-06-29T11:55:07.482Z,5.60
2023-06-29T11:57:40.678Z,7.20
2023-06-29T12:00:18.041Z,5.30
2023-06-29T12:02:46.178Z,7.10
2023-06-29T12:05:14.119Z,7.40
2023-06-29T12:07:47.603Z,6.30
2023-06-29T12:10:24.425Z,6.00
2023-06-29T12:13:00.018Z,7.60
2023-06-29T12:15:31.127Z,5.60
2023-06-29T12:18:17.113Z,4.30
2023-06-29T12:20:48.318Z,5.10
2023-06-29T12:23:16.708Z,5.50
2023-06-29T12:25:51.126Z,5.30
2023-06-29T12:28:19.683Z,6.60
2023-06-29T12:30:48.079Z,3.90
2023-06-29T12:33:16.667Z,5.50
2023-06-29T12:35:44.818Z,5.50
2023-06-29T12:38:13.365Z,5.00
2023-06-29T12:40:41.112Z,5.30
2023-06-29T12:43:08.938Z,6.00
2023-06-29T12:45:36.822Z,5.20
2023-06-29T12:48:05.048Z,4.20
2023-06-29T12:50:33.961Z,6.20
2023-06-29T12:53:01.701Z,4.30
2023-06-29T12:55:29.435Z,5.50
2023-06-29T12:57:57.139Z,5.20
2023-06-29T13:00:24.930Z,4.20
2023-06-29T13:02:55.801Z,6.10
2023-06-29T13:05:23.853Z,6.00
2023-06-29T13:07:51.552Z,4.70
2023-06-29T13:10:19.568Z,5.60
2023-06-29T13:12:47.399Z,5.50
2023-06-29T13:15:15.363Z,5.40
2023-06-29T13:17:44.363Z,5.90
2023-06-29T13:20:15.702Z,3.90
2023-06-29T13:22:43.710Z,6.40
2023-06-29T13:25:12.333Z,6.30
2023-06-29T13:27:41.836Z,5.00
2023-06-29T13:30:15.581Z,5.90
2023-06-29T13:32:43.326Z,5.60
2023-06-29T13:35:11.249Z,4.80
2023-06-29T13:37:38.987Z,6.30
2023-06-29T13:40:08.086Z,6.50
2023-06-29T13:42:35.804Z,4.90
2023-06-29T13:45:03.746Z,5.50
2023-06-29T13:47:31.565Z,7.30
2023-06-29T13:49:59.378Z,6.90
2023-06-29T13:52:27.094Z,5.80
2023-06-29T13:54:54.866Z,4.40
2023-06-29T13:57:23.628Z,5.60
2023-06-29T13:59:53.127Z,5.70
2023-06-29T14:02:20.976Z,5.30
2023-06-29T14:04:48.649Z,5.90
2023-06-29T14:07:21.884Z,6.50
2023-06-29T14:09:49.789Z,6.10
2023-06-29T14:12:17.538Z,5.40
2023-06-29T14:14:46.268Z,6.40
2023-06-29T14:17:15.954Z,7.10
2023-06-29T14:19:43.895Z,7.50
2023-06-29T14:22:12.337Z,10.20
2023-06-29T14:24:40.067Z,5.50
2023-06-29T14:27:07.774Z,6.10
2023-06-29T14:29:35.910Z,7.30
2023-06-29T14:32:03.840Z,5.60
2023-06-29T14:34:32.200Z,5.20
2023-06-29T14:37:00.085Z,7.70
2023-06-29T14:39:27.762Z,5.50
2023-06-29T14:41:56.961Z,5.90
2023-06-29T14:44:24.707Z,5.20
2023-06-29T14:46:52.727Z,6.90
2023-06-29T14:49:20.407Z,6.80
2023-06-29T14:51:48.218Z,5.80
2023-06-29T14:54:19.728Z,6.00
2023-06-29T14:56:47.542Z,5.10
2023-06-29T14:59:15.544Z,6.70
2023-06-29T15:01:43.307Z,6.30
2023-06-29T15:04:11.076Z,4.90
2023-06-29T15:06:38.825Z,6.80
2023-06-29T15:09:08.513Z,5.70
2023-06-29T15:11:36.428Z,5.60
2023-06-29T15:14:04.539Z,4.60
2023-06-29T15:16:33.174Z,6.50
2023-06-29T15:19:01.034Z,6.80
2023-06-29T15:21:28.714Z,5.90
2023-06-29T15:23:56.703Z,7.00
2023-06-29T15:26:24.337Z,4.80
2023-06-29T15:28:52.205Z,5.10
2023-06-29T15:31:19.939Z,5.30
2023-06-29T15:33:47.620Z,5.10
2023-06-29T15:36:15.305Z,6.20
2023-06-29T15:38:43.089Z,4.60
2023-06-29T15:41:10.810Z,5.90
2023-06-29T15:43:38.852Z,6.10
2023-06-29T15:46:06.603Z,4.50
2023-06-29T15:48:34.459Z,6.30
2023-06-29T15:51:02.455Z,5.90
2023-06-29T15:53:30.352Z,5.60
2023-06-29T15:55:58.287Z,4.70
2023-06-29T15:58:28.159Z,5.10
2023-06-29T16:00:55.892Z,5.00
2023-06-29T16:03:24.134Z,5.00
2023-06-29T16:05:51.882Z,7.70
2023-06-29T16:08:19.742Z,5.40
2023-06-29T16:10:47.621Z,4.90
2023-06-29T16:13:15.311Z,7.50
2023-06-29T16:15:43.359Z,4.70
2023-06-29T16:18:12.457Z,5.50
2023-06-29T16:20:40.229Z,5.10
2023-06-29T16:23:08.115Z,4.30
2023-06-29T16:25:35.771Z,5.20
2023-06-29T16:28:04.219Z,4.40
2023-06-29T16:30:36.332Z,5.70
2023-06-29T16:33:04.448Z,4.30
2023-06-29T16:35:33.607Z,4.10
2023-06-29T16:38:02.856Z,6.30
2023-06-29T16:40:30.649Z,5.70
2023-06-29T16:42:58.458Z,3.90
2023-06-29T16:45:26.770Z,5.60
2023-06-29T16:47:56.154Z,5.00
2023-06-29T16:50:24.049Z,3.50
2023-06-29T16:52:51.722Z,4.20
2023-06-29T16:55:19.330Z,5.20
2023-06-29T16:57:47.025Z,6.80
2023-06-29T17:00:15.999Z,3.70
2023-06-29T17:02:43.797Z,3.80
2023-06-29T17:05:11.590Z,3.90
2023-06-29T17:07:39.329Z,5.70
2023-06-29T17:10:07.759Z,4.40
2023-06-29T17:12:35.520Z,5.00
2023-06-29T17:15:03.590Z,5.00
2023-06-29T17:17:31.279Z,4.60
2023-06-29T17:19:59.038Z,3.90
2023-06-29T17:22:26.718Z,3.40
2023-06-29T17:24:54.460Z,6.30
2023-06-29T17:27:22.619Z,4.50
2023-06-29T17:29:50.370Z,4.00
2023-06-29T17:32:18.206Z,7.60
2023-06-29T17:34:45.947Z,4.70
2023-06-29T17:37:13.726Z,4.80
2023-06-29T17:39:41.506Z,6.40
2023-06-29T17:42:22.998Z,4.30
2023-06-29T17:44:50.721Z,4.20
2023-06-29T17:47:18.501Z,5.20
2023-06-29T17:49:46.141Z,5.10
2023-06-29T17:52:13.858Z,4.50
2023-06-29T17:54:41.586Z,3.70
2023-06-29T17:57:09.289Z,3.80
2023-06-29T17:59:37.011Z,5.60
2023-06-29T18:02:05.459Z,4.70
2023-06-29T18:04:34.240Z,4.60
2023-06-29T18:07:02.085Z,4.60
2023-06-29T18:09:29.920Z,4.80
2023-06-29T18:11:58.451Z,4.70
2023-06-29T18:14:26.279Z,6.50
2023-06-29T18:16:53.933Z,7.80
2023-06-29T18:19:21.677Z,6.50
2023-06-29T18:21:49.410Z,8.90
2023-06-29T18:24:18.336Z,5.20
2023-06-29T18:26:48.025Z,5.80
2023-06-29T18:29:17.336Z,6.10
2023-06-29T18:31:45.235Z,6.00
2023-06-29T18:34:13.062Z,5.90
2023-06-29T18:36:40.775Z,5.50
2023-06-29T18:39:08.457Z,6.10
2023-06-29T18:41:39.977Z,5.30
2023-06-29T18:44:07.721Z,7.20
2023-06-29T18:46:41.436Z,5.90
2023-06-29T18:49:09.427Z,6.20
2023-06-29T18:51:37.151Z,6.10
2023-06-29T18:54:05.319Z,7.00
2023-06-29T18:56:33.072Z,6.20
2023-06-29T18:59:00.809Z,6.40
2023-06-29T19:01:28.741Z,6.90
2023-06-29T19:03:57.135Z,5.70
2023-06-29T19:06:38.596Z,6.80
2023-06-29T19:09:33.557Z,5.80
2023-06-29T19:12:21.556Z,6.20
2023-06-29T19:14:49.254Z,7.40
2023-06-29T19:17:17.160Z,5.70
2023-06-29T19:19:45.092Z,6.80
2023-06-29T19:22:12.922Z,6.80
2023-06-29T19:24:40.575Z,9.50
2023-06-29T19:27:08.363Z,7.40
2023-06-29T19:29:36.063Z,8.20
2023-06-29T19:32:04.322Z,6.50
2023-06-29T19:34:34.567Z,6.90
2023-06-29T19:37:04.126Z,7.10
2023-06-29T19:39:31.883Z,6.70
2023-06-29T19:41:59.606Z,6.90
2023-06-29T19:44:27.337Z,8.30
2023-06-29T19:46:55.060Z,8.30
2023-06-29T19:49:22.828Z,9.30
2023-06-29T19:51:50.558Z,8.50
2023-06-29T19:54:18.246Z,9.70
2023-06-29T19:56:46.172Z,8.80
2023-06-29T19:59:13.871Z,8.70
2023-06-29T20:01:41.600Z,8.20
2023-06-29T20:04:09.417Z,10.30
2023-06-29T20:06:37.168Z,9.90
2023-06-29T20:09:05.077Z,10.30
2023-06-29T20:11:32.886Z,9.50
2023-06-29T20:14:00.851Z,14.70
2023-06-29T20:16:28.610Z,11.20
2023-06-29T20:18:56.331Z,9.20
2023-06-29T20:21:24.060Z,11.00
2023-06-29T20:23:52.058Z,10.70
2023-06-29T20:26:20.419Z,10.60
2023-06-29T20:28:48.152Z,8.80
2023-06-29T20:31:15.871Z,8.00
2023-06-29T20:33:43.613Z,8.80
2023-06-29T20:36:14.249Z,10.40
2023-06-29T20:38:43.242Z,9.40
2023-06-29T20:41:12.559Z,11.10
2023-06-29T20:43:40.215Z,9.10
2023-06-29T20:46:08.163Z,13.80
2023-06-29T20:48:36.946Z,10.70
2023-06-29T20:51:17.027Z,13.90
2023-06-29T20:53:46.157Z,10.50
2023-06-29T20:56:14.078Z,12.20
2023-06-29T20:58:41.832Z,12.20
2023-06-29T21:01:09.814Z,13.00
2023-06-29T21:03:39.161Z,10.60
2023-06-29T21:06:06.936Z,10.10
2023-06-29T21:08:35.299Z,10.40
2023-06-29T21:11:03.851Z,11.20
2023-06-29T21:13:31.787Z,8.10
2023-06-29T21:15:59.678Z,8.20
2023-06-29T21:18:28.086Z,8.20
2023-06-29T21:20:56.157Z,7.50
2023-06-29T21:23:23.969Z,8.20
2023-06-29T21:25:51.943Z,11.30
2023-06-29T21:28:21.378Z,9.10
2023-06-29T21:30:49.656Z,11.50
2023-06-29T21:33:17.682Z,10.00
2023-06-29T21:35:46.020Z,11.40
2023-06-29T21:38:14.237Z,8.90
2023-06-29T21:40:42.021Z,9.10
2023-06-29T21:43:09.703Z,12.60
2023-06-29T21:45:37.475Z,7.20
2023-06-29T21:48:06.007Z,11.30
2023-06-29T21:50:34.801Z,9.40
2023-06-29T21:53:03.214Z,6.70
2023-06-29T21:55:31.053Z,9.20
2023-06-29T21:57:58.901Z,7.50
2023-06-29T22:00:26.835Z,8.40
2023-06-29T22:02:56.382Z,10.00
2023-06-29T22:05:24.502Z,10.30
2023-06-29T22:07:52.282Z,9.70
2023-06-29T22:10:20.060Z,13.50
2023-06-29T22:13:58.869Z,9.80
2023-06-29T22:16:27.415Z,9.60
2023-06-29T22:18:55.889Z,8.20
2023-06-29T22:21:25.358Z,10.90
2023-06-29T22:23:55.521Z,9.00
2023-06-29T22:26:24.991Z,11.70
2023-06-29T22:28:53.217Z,10.10
2023-06-29T22:31:21.226Z,9.80
2023-06-29T22:33:48.969Z,9.40
2023-06-29T22:36:19.240Z,8.20
2023-06-29T22:38:47.233Z,10.00
2023-06-29T22:41:15.072Z,9.00
2023-06-29T22:43:42.720Z,8.60
2023-06-29T22:46:11.287Z,8.90
2023-06-29T22:48:39.119Z,9.60
2023-06-29T22:51:07.061Z,8.70
2023-06-29T22:53:35.135Z,11.30
2023-06-29T22:56:02.913Z,8.80
2023-06-29T22:58:30.574Z,9.50
2023-06-29T23:00:58.333Z,9.00
2023-06-29T23:03:26.167Z,15.40
2023-06-29T23:05:54.048Z,8.70
2023-06-29T23:08:21.800Z,8.60
2023-06-29T23:10:50.258Z,9.50
2023-06-29T23:13:18.248Z,8.20
2023-06-29T23:15:46.925Z,12.00
2023-06-29T23:18:14.823Z,15.90
2023-06-29T23:20:46.058Z,13.50
2023-06-29T23:23:14.481Z,15.00
2023-06-29T23:25:43.681Z,17.30
2023-06-29T23:28:11.661Z,11.50
2023-06-29T23:30:39.414Z,8.90
2023-06-29T23:33:09.412Z,9.70
2023-06-29T23:35:39.076Z,10.40
2023-06-29T23:38:06.816Z,10.50
2023-06-29T23:40:37.609Z,10.30
2023-06-29T23:43:05.709Z,7.40
2023-06-29T23:45:36.576Z,9.80
2023-06-29T23:48:05.172Z,9.40
2023-06-29T23:50:32.951Z,8.90
2023-06-29T23:53:00.654Z,9.70
2023-06-29T23:55:29.295Z,11.90
2023-06-29T23:57:57.149Z,7.80
